Arlon, Belgium
Current Conditions -  °F | °C
As of 4:20 AM on Sunday 23 Nov 2014 (Local Time) from ELLX Reporting Station
Clear Clear  
Wind Chill: 43°   Ceiling: Unl
Heat Index: 43°   Visibility: 4mi
Dew Point: 43°   Wind: 3mph
Humidity: 100%   Direction: 100°E
Pressure: 30.09"   Gusts: NA
Location:  49.68°N, 5.82°E
Report Text: ELLX 230320Z 10003KT 6000 NSC 06/06 Q1019 NOSIG
Loading
Personal Weather Stations






























Interactive Weather Map New forecast layout! Learn more

10-Day Weather Forecast

Advertisements
Track Severe Weather on mobile